createdAt,value
2022-09-28T00:01:17.804Z,99041.25
2022-09-28T00:03:46.453Z,99041.84
2022-09-28T00:06:15.989Z,99044.06
2022-09-28T00:08:42.784Z,99027.22
2022-09-28T00:11:13.758Z,99040.13
2022-09-28T00:13:41.491Z,99050.50
2022-09-28T00:16:14.140Z,99072.72
2022-09-28T00:18:41.666Z,99011.00
2022-09-28T00:21:15.406Z,99066.69
2022-09-28T00:24:01.475Z,99070.63
2022-09-28T00:26:30.380Z,99077.94
2022-09-28T00:29:00.119Z,99073.75
2022-09-28T00:31:35.884Z,99079.78
2022-09-28T00:34:02.752Z,99083.03
2022-09-28T00:36:31.050Z,99082.94
2022-09-28T00:38:58.887Z,99057.22
2022-09-28T00:41:27.823Z,99081.66
2022-09-28T00:44:15.227Z,99059.47
2022-09-28T00:46:41.978Z,99054.97
2022-09-28T00:49:15.778Z,99062.06
2022-09-28T00:51:44.567Z,99027.53
2022-09-28T00:54:12.818Z,99008.34
2022-09-28T00:56:45.926Z,99049.97
2022-09-28T00:59:13.003Z,99054.19
2022-09-28T01:01:39.621Z,99043.94
2022-09-28T01:04:06.416Z,99034.03
2022-09-28T01:06:35.803Z,99067.06
2022-09-28T01:09:06.300Z,99069.25
2022-09-28T01:11:35.272Z,99064.59
2022-09-28T01:14:02.377Z,99039.91
2022-09-28T01:16:38.131Z,99046.50
2022-09-28T01:19:10.783Z,99046.81
2022-09-28T01:21:51.700Z,99027.22
2022-09-28T01:24:38.735Z,99049.44
2022-09-28T01:27:11.326Z,99045.03
2022-09-28T01:29:46.092Z,99027.63
2022-09-28T01:32:38.068Z,99022.81
2022-09-28T01:35:15.002Z,99045.03
2022-09-28T01:37:52.725Z,99016.78
2022-09-28T01:40:23.053Z,99042.88
2022-09-28T01:42:55.025Z,99038.75
2022-09-28T01:45:31.264Z,99051.63
2022-09-28T01:48:02.433Z,99017.75
2022-09-28T01:50:33.352Z,99041.00
2022-09-28T01:53:21.599Z,99045.13
2022-09-28T01:55:54.171Z,99064.78
2022-09-28T01:58:30.285Z,99034.47
2022-09-28T02:01:06.132Z,99038.00
2022-09-28T02:03:42.971Z,99074.94
2022-09-28T02:06:16.668Z,99069.94
2022-09-28T02:08:56.570Z,99085.63
2022-09-28T02:11:23.032Z,99090.06
2022-09-28T02:13:58.923Z,99080.09
2022-09-28T02:16:28.500Z,99079.91
2022-09-28T02:18:55.796Z,99078.38
2022-09-28T02:21:42.942Z,99079.44
2022-09-28T02:24:27.273Z,99072.09
2022-09-28T02:26:57.718Z,99075.94
2022-09-28T02:29:24.553Z,99099.88
2022-09-28T02:31:52.221Z,99095.81
2022-09-28T02:34:19.005Z,99090.72
2022-09-28T02:36:46.946Z,99080.47
2022-09-28T02:39:19.045Z,99091.75
2022-09-28T02:41:50.544Z,99039.50
2022-09-28T02:44:17.086Z,99080.25
2022-09-28T02:47:05.234Z,99081.19
2022-09-28T02:49:49.888Z,99080.94
2022-09-28T02:52:28.563Z,99088.06
2022-09-28T02:55:10.197Z,99093.41
2022-09-28T02:57:59.888Z,99095.28
2022-09-28T03:00:28.011Z,99076.97
2022-09-28T03:03:15.892Z,99101.22
2022-09-28T03:06:03.360Z,99082.81
2022-09-28T03:08:37.994Z,99090.22
2022-09-28T03:11:10.356Z,99083.56
2022-09-28T03:13:37.856Z,99075.59
2022-09-28T03:16:22.794Z,99095.56
2022-09-28T03:18:49.461Z,99057.28
2022-09-28T03:21:16.299Z,99119.59
2022-09-28T03:23:43.355Z,99090.16
2022-09-28T03:26:13.675Z,99095.06
2022-09-28T03:28:40.933Z,99086.59
2022-09-28T03:31:07.618Z,99100.25
2022-09-28T03:33:34.276Z,99085.72
2022-09-28T03:36:01.036Z,99081.94
2022-09-28T03:38:27.723Z,99092.25
2022-09-28T03:40:55.028Z,99108.47
2022-09-28T03:43:22.226Z,99089.81
2022-09-28T03:45:53.769Z,99081.09
2022-09-28T03:48:32.389Z,99060.91
2022-09-28T03:51:02.415Z,99096.44
2022-09-28T03:53:29.897Z,99119.88
2022-09-28T03:56:01.879Z,99070.97
2022-09-28T03:58:28.567Z,99090.66
2022-09-28T04:00:55.226Z,99120.25
2022-09-28T04:03:21.956Z,99127.69
2022-09-28T04:05:50.716Z,99137.34
2022-09-28T04:08:17.767Z,99115.63
2022-09-28T04:10:44.650Z,99123.59
2022-09-28T04:13:11.722Z,99123.34
2022-09-28T04:15:38.613Z,99090.47
2022-09-28T04:18:13.653Z,99143.00
2022-09-28T04:20:41.527Z,99091.78
2022-09-28T04:23:08.163Z,99119.28
2022-09-28T04:25:34.831Z,99116.72
2022-09-28T04:28:19.821Z,99128.25
2022-09-28T04:30:47.855Z,99142.34
2022-09-28T04:33:14.481Z,99112.16
2022-09-28T04:35:41.121Z,99110.94
2022-09-28T04:38:07.804Z,99110.22
2022-09-28T04:40:34.415Z,99109.03
2022-09-28T04:43:01.055Z,99133.16
2022-09-28T04:45:28.620Z,99111.03
2022-09-28T04:47:55.288Z,99129.50
2022-09-28T04:50:22.021Z,99143.69
2022-09-28T04:52:48.623Z,99125.31
2022-09-28T04:55:16.910Z,99151.97
2022-09-28T04:57:43.553Z,99141.13
2022-09-28T05:00:12.196Z,99144.53
2022-09-28T05:02:39.285Z,99132.09
2022-09-28T05:05:06.404Z,99140.38
2022-09-28T05:07:33.029Z,99133.72
2022-09-28T05:10:01.578Z,99148.88
2022-09-28T05:12:28.168Z,99130.56
2022-09-28T05:14:54.784Z,99136.13
2022-09-28T05:17:21.379Z,99141.06
2022-09-28T05:19:47.997Z,99154.31
2022-09-28T05:22:15.148Z,99127.25
2022-09-28T05:24:41.803Z,99142.31
2022-09-28T05:27:08.727Z,99175.88
2022-09-28T05:29:35.433Z,99135.72
2022-09-28T05:32:02.383Z,99190.56
2022-09-28T05:34:29.358Z,99181.19
2022-09-28T05:36:56.174Z,99181.00
2022-09-28T05:39:22.793Z,99178.50
2022-09-28T05:41:49.508Z,99155.78
2022-09-28T05:44:16.152Z,99146.38
2022-09-28T05:46:42.884Z,99139.34
2022-09-28T05:49:09.612Z,99147.28
2022-09-28T05:51:36.254Z,99148.72
2022-09-28T05:54:05.884Z,99161.22
2022-09-28T05:56:33.138Z,99176.63
2022-09-28T05:58:59.812Z,99120.00
2022-09-28T06:01:26.635Z,99142.53
2022-09-28T06:03:53.319Z,99133.16
2022-09-28T06:06:19.981Z,99131.94
2022-09-28T06:08:48.465Z,99153.44
2022-09-28T06:11:15.150Z,99167.94
2022-09-28T06:13:41.884Z,99161.22
2022-09-28T06:16:08.644Z,99172.34
2022-09-28T06:18:35.463Z,99167.34
2022-09-28T06:21:02.855Z,99178.88
2022-09-28T06:23:29.486Z,99169.44
2022-09-28T06:25:56.106Z,99189.06
2022-09-28T06:28:22.915Z,99102.25
2022-09-28T06:30:49.538Z,99186.81
2022-09-28T06:33:16.432Z,99156.38
2022-09-28T06:35:43.327Z,99175.19
2022-09-28T06:38:10.318Z,99175.78
2022-09-28T06:40:37.616Z,99179.78
2022-09-28T06:43:10.242Z,99163.28
2022-09-28T06:45:38.421Z,99176.09
2022-09-28T06:48:05.901Z,99154.59
2022-09-28T06:50:37.439Z,99173.63
2022-09-28T06:53:06.804Z,99183.44
2022-09-28T06:55:34.499Z,99165.84
2022-09-28T06:58:06.414Z,99189.78
2022-09-28T07:00:35.571Z,99168.53
2022-09-28T07:03:03.523Z,99179.19
2022-09-28T07:05:30.850Z,99173.19
2022-09-28T07:07:57.702Z,99179.19
2022-09-28T07:10:28.897Z,99165.31
2022-09-28T07:12:56.883Z,99177.00
2022-09-28T07:15:24.633Z,99192.66
2022-09-28T07:18:02.386Z,99194.66
2022-09-28T07:20:31.299Z,99146.84
2022-09-28T07:23:12.102Z,99189.47
2022-09-28T07:25:47.843Z,99174.13
2022-09-28T07:28:14.823Z,99164.97
2022-09-28T07:30:42.308Z,99182.22
2022-09-28T07:33:12.616Z,99170.06
2022-09-28T07:35:39.321Z,99166.50
2022-09-28T07:38:07.707Z,99169.41
2022-09-28T07:40:54.710Z,99160.19
2022-09-28T07:43:22.249Z,99148.47
2022-09-28T07:45:50.949Z,99166.78
2022-09-28T07:48:18.751Z,99171.63
2022-09-28T07:50:54.032Z,99175.69
2022-09-28T07:53:22.935Z,99164.03
2022-09-28T07:56:02.007Z,99169.50
2022-09-28T07:58:29.409Z,99147.34
2022-09-28T08:00:56.033Z,99155.19
2022-09-28T08:03:22.669Z,99148.78
2022-09-28T08:05:49.855Z,99144.69
2022-09-28T08:08:16.516Z,99138.19
2022-09-28T08:10:47.005Z,99158.38
2022-09-28T08:13:15.321Z,99170.22
2022-09-28T08:15:42.632Z,99126.13
2022-09-28T08:18:10.246Z,99165.03
2022-09-28T08:20:55.640Z,99153.13
2022-09-28T08:23:23.564Z,99143.88
2022-09-28T08:25:54.061Z,99158.03
2022-09-28T08:28:22.667Z,99135.50
2022-09-28T08:30:50.341Z,99161.19
2022-09-28T08:33:18.330Z,99142.16
2022-09-28T08:35:45.985Z,99116.84
2022-09-28T08:38:13.681Z,99105.91
2022-09-28T08:40:58.071Z,99121.06
2022-09-28T08:43:46.104Z,99138.69
2022-09-28T08:46:15.005Z,99134.00
2022-09-28T08:49:25.251Z,99141.38
2022-09-28T08:52:17.965Z,99148.25
2022-09-28T08:55:12.571Z,99142.44
2022-09-28T08:57:51.483Z,99148.84
2022-09-28T09:00:38.171Z,99134.97
2022-09-28T09:03:12.777Z,99132.34
2022-09-28T09:06:17.640Z,99156.19
2022-09-28T09:08:51.697Z,99149.19
2022-09-28T09:11:31.916Z,99125.34
2022-09-28T09:14:27.856Z,99146.66
2022-09-28T09:17:13.458Z,99140.75
2022-09-28T09:20:01.786Z,99137.84
2022-09-28T09:22:40.731Z,99135.19
2022-09-28T09:25:21.539Z,99133.91
2022-09-28T09:28:16.312Z,99134.97
2022-09-28T09:31:13.711Z,99122.75
2022-09-28T09:34:18.094Z,99136.53
2022-09-28T09:37:02.845Z,99136.69
2022-09-28T09:40:08.224Z,99128.50
2022-09-28T09:42:40.737Z,99130.19
2022-09-28T09:45:14.837Z,99125.22
2022-09-28T09:47:47.293Z,99104.16
2022-09-28T09:50:32.065Z,99131.13
2022-09-28T09:53:42.210Z,99129.47
2022-09-28T09:56:21.515Z,99129.66
2022-09-28T09:58:59.872Z,99114.03
2022-09-28T10:01:37.291Z,99125.22
2022-09-28T10:04:08.777Z,99117.00
2022-09-28T10:06:37.358Z,99135.84
2022-09-28T10:09:13.796Z,99131.75
2022-09-28T10:11:45.241Z,99121.31
2022-09-28T10:14:25.293Z,99139.63
2022-09-28T10:16:53.846Z,99129.09
2022-09-28T10:19:27.590Z,99123.78
2022-09-28T10:21:54.193Z,99115.25
2022-09-28T10:24:31.512Z,99120.94
2022-09-28T10:27:05.655Z,99116.97
2022-09-28T10:29:43.275Z,99114.81
2022-09-28T10:32:44.816Z,99108.25
2022-09-28T10:35:24.517Z,99109.50
2022-09-28T10:37:52.274Z,99120.22
2022-09-28T10:40:44.815Z,99113.69
2022-09-28T10:43:33.527Z,99115.41
2022-09-28T10:46:21.873Z,99106.75
2022-09-28T10:49:12.382Z,99118.13
2022-09-28T10:51:45.393Z,99111.19
2022-09-28T10:54:18.181Z,99095.44
2022-09-28T10:56:46.581Z,99100.50
2022-09-28T10:59:31.618Z,99101.13
2022-09-28T11:02:02.658Z,99092.03
2022-09-28T11:04:41.530Z,99099.56
2022-09-28T11:07:24.800Z,99074.72
2022-09-28T11:09:53.290Z,99078.22
2022-09-28T11:12:26.213Z,99070.63
2022-09-28T11:15:01.127Z,98997.75
2022-09-28T11:17:32.532Z,99075.78
2022-09-28T11:20:01.850Z,99073.03
2022-09-28T11:22:34.601Z,99069.41
2022-09-28T11:25:16.328Z,99066.19
2022-09-28T11:27:52.105Z,99081.25
2022-09-28T11:30:34.439Z,99078.66
2022-09-28T11:33:05.301Z,99048.22
2022-09-28T11:36:06.378Z,99078.03
2022-09-28T11:38:39.651Z,99077.47
2022-09-28T11:41:12.288Z,99066.38
2022-09-28T11:43:58.108Z,99058.53
2022-09-28T11:46:43.716Z,99064.28
2022-09-28T11:49:38.355Z,99063.28
2022-09-28T11:52:31.908Z,99045.59
2022-09-28T11:55:09.853Z,99055.28
2022-09-28T11:57:40.869Z,99043.22
2022-09-28T12:00:15.394Z,99056.84
2022-09-28T12:02:49.811Z,99044.50
2022-09-28T12:05:20.702Z,99039.84
2022-09-28T12:07:54.551Z,99031.88
2022-09-28T12:10:45.273Z,99019.53
2022-09-28T12:13:16.967Z,99027.91
2022-09-28T12:16:20.031Z,99027.19
2022-09-28T12:18:52.034Z,99043.09
2022-09-28T12:21:24.739Z,99029.09
2022-09-28T12:24:05.191Z,99029.28
2022-09-28T12:26:40.095Z,99032.72
2022-09-28T12:29:22.856Z,99029.47
2022-09-28T12:32:26.649Z,99012.81
2022-09-28T12:34:53.320Z,99024.25
2022-09-28T12:37:44.440Z,99016.81
2022-09-28T12:40:29.853Z,99026.91
2022-09-28T12:43:33.860Z,99014.31
2022-09-28T12:46:38.946Z,99000.69
2022-09-28T12:52:48.098Z,99008.66
2022-09-28T12:55:27.607Z,99007.66
2022-09-28T12:58:36.771Z,98994.41
2022-09-28T13:01:31.895Z,98992.03
2022-09-28T13:04:02.992Z,98989.38
2022-09-28T13:06:32.580Z,98990.06
2022-09-28T13:09:01.461Z,98984.47
2022-09-28T13:11:54.727Z,98976.66
2022-09-28T13:14:27.100Z,98981.28
2022-09-28T13:17:12.360Z,98974.13
2022-09-28T13:19:55.028Z,98961.91
2022-09-28T13:22:44.378Z,98952.88
2022-09-28T13:25:17.765Z,98960.47
2022-09-28T13:28:05.613Z,98960.59
2022-09-28T13:30:35.625Z,98953.97
2022-09-28T13:33:05.954Z,98942.22
2022-09-28T13:35:33.404Z,98942.06
2022-09-28T13:38:18.261Z,98940.59
2022-09-28T13:41:06.782Z,98950.88
2022-09-28T13:43:36.624Z,98936.06
2022-09-28T13:46:19.837Z,98928.19
2022-09-28T13:49:05.313Z,98948.56
2022-09-28T13:51:40.099Z,98938.22
2022-09-28T13:54:37.059Z,98935.63
2022-09-28T13:57:29.879Z,98949.44
2022-09-28T14:00:02.870Z,98938.13
2022-09-28T14:02:36.879Z,98941.19
2022-09-28T14:05:47.449Z,98951.59
2022-09-28T14:08:28.657Z,98938.47
2022-09-28T14:10:57.239Z,98948.94
2022-09-28T14:13:44.926Z,98954.63
2022-09-28T14:16:17.907Z,98943.63
2022-09-28T14:18:50.088Z,98931.56
2022-09-28T14:21:31.761Z,98938.31
2022-09-28T14:24:39.906Z,98926.69
2022-09-28T14:27:40.539Z,98945.72
2022-09-28T14:30:10.230Z,98944.22
2022-09-28T14:32:38.320Z,98928.63
2022-09-28T14:35:18.481Z,98890.13
2022-09-28T14:38:07.846Z,98932.41
2022-09-28T14:41:10.061Z,98928.38
2022-09-28T14:43:45.816Z,98929.22
2022-09-28T14:46:14.497Z,98922.06
2022-09-28T14:48:49.053Z,98922.19
2022-09-28T14:51:25.093Z,98915.75
2022-09-28T14:53:52.865Z,98904.00
2022-09-28T14:56:19.763Z,98909.44
2022-09-28T14:58:52.935Z,98930.03
2022-09-28T15:01:22.227Z,98919.41
2022-09-28T15:03:52.393Z,98948.25
2022-09-28T15:06:22.966Z,98937.00
2022-09-28T15:08:49.758Z,98947.09
2022-09-28T15:11:21.742Z,98949.59
2022-09-28T15:13:53.343Z,98936.28
2022-09-28T15:16:24.127Z,98954.94
2022-09-28T15:19:31.128Z,98951.66
2022-09-28T15:21:57.804Z,98917.75
2022-09-28T15:24:24.764Z,98972.47
2022-09-28T15:26:52.025Z,98963.13
2022-09-28T15:29:19.648Z,98966.25
2022-09-28T15:31:47.557Z,98973.09
2022-09-28T15:34:51.761Z,98983.34
2022-09-28T15:37:23.042Z,98970.00
2022-09-28T15:39:51.428Z,98961.13
2022-09-28T15:42:18.721Z,98970.84
2022-09-28T15:45:22.235Z,98931.41
2022-09-28T15:47:48.965Z,98930.34
2022-09-28T15:50:28.345Z,98934.84
2022-09-28T15:53:01.204Z,98954.69
2022-09-28T15:55:34.535Z,98942.66
2022-09-28T15:58:08.844Z,98950.25
2022-09-28T16:00:35.905Z,98960.66
2022-09-28T16:03:29.147Z,98960.31
2022-09-28T16:05:58.692Z,98958.63
2022-09-28T16:08:42.769Z,98955.06
2022-09-28T16:11:20.968Z,98954.84
2022-09-28T16:13:56.504Z,98952.72
2022-09-28T16:16:35.182Z,98962.00
2022-09-28T16:19:02.813Z,98947.19
2022-09-28T16:21:42.628Z,98954.91
2022-09-28T16:24:20.031Z,98954.00
2022-09-28T16:26:47.020Z,98940.63
2022-09-28T16:29:32.617Z,98954.72
2022-09-28T16:32:24.922Z,98958.59
2022-09-28T16:35:11.757Z,98959.47
2022-09-28T16:37:42.758Z,98945.25
2022-09-28T16:40:12.852Z,98937.41
2022-09-28T16:42:43.441Z,98934.53
2022-09-28T16:45:19.960Z,98964.53
2022-09-28T16:47:47.961Z,98951.28
2022-09-28T16:50:15.366Z,98943.09
2022-09-28T16:53:00.516Z,98945.63
2022-09-28T16:55:40.200Z,98925.75
2022-09-28T16:58:08.227Z,98949.34
2022-09-28T17:00:35.081Z,98963.09
2022-09-28T17:03:02.250Z,98920.56
2022-09-28T17:05:29.532Z,98923.59
2022-09-28T17:08:04.094Z,98955.97
2022-09-28T17:10:50.168Z,98949.34
2022-09-28T17:13:35.968Z,98949.38
2022-09-28T17:16:08.445Z,98942.84
2022-09-28T17:18:39.137Z,98942.25
2022-09-28T17:21:10.793Z,98950.34
2022-09-28T17:23:37.424Z,98892.25
2022-09-28T17:26:06.517Z,98937.16
2022-09-28T17:28:36.562Z,98938.34
2022-09-28T17:31:07.038Z,98940.28
2022-09-28T17:33:33.672Z,98913.78
2022-09-28T17:36:04.754Z,98952.34
2022-09-28T17:38:31.993Z,98882.00
2022-09-28T17:40:58.638Z,98930.44
2022-09-28T17:43:25.312Z,98925.47
2022-09-28T17:45:52.006Z,98905.97
2022-09-28T17:48:24.365Z,98944.84
2022-09-28T17:50:51.289Z,98933.06
2022-09-28T17:53:18.242Z,98928.84
2022-09-28T17:55:44.845Z,98952.91
2022-09-28T17:58:19.068Z,98963.03
2022-09-28T18:00:47.720Z,98962.19
2022-09-28T18:03:17.432Z,98946.19
2022-09-28T18:05:45.748Z,98890.16
2022-09-28T18:08:15.679Z,98949.44
2022-09-28T18:10:42.383Z,98952.91
2022-09-28T18:13:09.860Z,98963.50
2022-09-28T18:15:36.536Z,98964.19
2022-09-28T18:18:03.416Z,98969.34
2022-09-28T18:20:30.606Z,98965.88
2022-09-28T18:22:57.814Z,98946.34
2022-09-28T18:25:24.486Z,98931.41
2022-09-28T18:27:54.539Z,98942.38
2022-09-28T18:30:21.148Z,98955.97
2022-09-28T18:32:47.765Z,98960.38
2022-09-28T18:35:14.453Z,98950.91
2022-09-28T18:37:41.215Z,98945.94
2022-09-28T18:40:09.680Z,98935.81
2022-09-28T18:42:36.480Z,98936.78
2022-09-28T18:45:06.256Z,98949.22
2022-09-28T18:47:33.193Z,98949.72
2022-09-28T18:49:59.831Z,98927.41
2022-09-28T18:52:27.491Z,98957.53
2022-09-28T18:54:54.188Z,98958.78
2022-09-28T18:57:21.368Z,98963.22
2022-09-28T18:59:48.223Z,98894.19
2022-09-28T19:02:14.895Z,98946.97
2022-09-28T19:04:41.625Z,98952.03
2022-09-28T19:07:08.662Z,98953.38
2022-09-28T19:09:35.395Z,98931.97
2022-09-28T19:12:02.304Z,98927.00
2022-09-28T19:14:28.891Z,98903.03
2022-09-28T19:16:55.629Z,98926.50
2022-09-28T19:19:22.491Z,98920.97
2022-09-28T19:21:49.185Z,98925.91
2022-09-28T19:24:18.251Z,98930.63
2022-09-28T19:26:46.549Z,98940.72
2022-09-28T19:29:13.989Z,98939.88
2022-09-28T19:31:43.618Z,98958.06
2022-09-28T19:34:13.483Z,98967.09
2022-09-28T19:36:41.567Z,98929.38
2022-09-28T19:39:08.437Z,98944.31
2022-09-28T19:41:44.846Z,98930.22
2022-09-28T19:44:36.428Z,98904.91
2022-09-28T19:47:09.060Z,98899.16
2022-09-28T19:49:40.683Z,98946.72
2022-09-28T19:52:16.152Z,98931.19
2022-09-28T19:54:54.373Z,98948.41
2022-09-28T19:57:21.463Z,98956.06
2022-09-28T19:59:52.376Z,98941.69
2022-09-28T20:02:19.531Z,98911.69
2022-09-28T20:04:46.227Z,98947.72
2022-09-28T20:07:12.869Z,98962.53
2022-09-28T20:09:39.494Z,98942.94
2022-09-28T20:12:06.509Z,98949.44
2022-09-28T20:14:38.031Z,98972.59
2022-09-28T20:17:06.905Z,98972.63
2022-09-28T20:19:33.606Z,98927.13
2022-09-28T20:22:02.977Z,98965.06
2022-09-28T20:24:31.269Z,98945.53
2022-09-28T20:26:58.189Z,98930.22
2022-09-28T20:29:24.921Z,98968.41
2022-09-28T20:31:52.202Z,98952.41
2022-09-28T20:34:19.110Z,98963.84
2022-09-28T20:36:45.783Z,98904.00
2022-09-28T20:39:12.944Z,98936.63
2022-09-28T20:41:40.278Z,98906.31
2022-09-28T20:44:07.264Z,98916.78
2022-09-28T20:46:37.575Z,98926.81
2022-09-28T20:49:05.257Z,98936.06
2022-09-28T20:51:32.369Z,98928.69
2022-09-28T20:53:59.449Z,98933.00
2022-09-28T20:56:28.503Z,98924.72
2022-09-28T20:58:55.804Z,98925.09
2022-09-28T21:01:29.933Z,98922.59
2022-09-28T21:03:59.013Z,98902.09
2022-09-28T21:06:28.835Z,98928.94
2022-09-28T21:08:55.346Z,98932.28
2022-09-28T21:11:24.267Z,98927.34
2022-09-28T21:13:59.984Z,98917.56
2022-09-28T21:16:28.712Z,98929.59
2022-09-28T21:18:55.693Z,98924.38
2022-09-28T21:21:23.917Z,98928.59
2022-09-28T21:23:54.916Z,98914.66
2022-09-28T21:26:26.666Z,98929.22
2022-09-28T21:29:04.354Z,98927.19
2022-09-28T21:31:36.858Z,98909.13
2022-09-28T21:34:04.713Z,98874.56
2022-09-28T21:36:31.973Z,98910.81
2022-09-28T21:38:58.623Z,98913.22
2022-09-28T21:41:25.375Z,98919.25
2022-09-28T21:43:52.595Z,98894.94
2022-09-28T21:46:19.378Z,98904.34
2022-09-28T21:48:46.027Z,98902.91
2022-09-28T21:51:15.452Z,98901.56
2022-09-28T21:53:42.839Z,98927.00
2022-09-28T21:56:12.182Z,98910.75
2022-09-28T21:58:40.147Z,98899.88
2022-09-28T22:01:13.284Z,98919.66
2022-09-28T22:06:17.871Z,98905.31
2022-09-28T22:08:45.940Z,98738.53
2022-09-28T22:11:17.317Z,98734.09
2022-09-28T22:13:46.498Z,98746.81
2022-09-28T22:16:15.172Z,98767.78
2022-09-28T22:18:42.199Z,98881.94
2022-09-28T22:21:12.872Z,98949.94
2022-09-28T22:23:40.366Z,98946.09
2022-09-28T22:26:18.993Z,98914.97
2022-09-28T22:28:51.811Z,98907.31
2022-09-28T22:31:20.775Z,98890.16
2022-09-28T22:33:47.921Z,98860.56
2022-09-28T22:36:16.981Z,98857.69
2022-09-28T22:38:44.443Z,98861.44
2022-09-28T22:41:11.367Z,98862.50
2022-09-28T22:43:38.180Z,98871.41
2022-09-28T22:46:05.804Z,98882.00
2022-09-28T22:48:32.953Z,98869.66
2022-09-28T22:50:59.603Z,98864.94
2022-09-28T22:53:26.766Z,98865.19
2022-09-28T22:55:53.466Z,98843.88
2022-09-28T22:58:20.303Z,98874.88
2022-09-28T23:00:48.330Z,98840.00
2022-09-28T23:03:14.971Z,98868.41
2022-09-28T23:05:41.857Z,98849.69
2022-09-28T23:08:08.528Z,98866.22
2022-09-28T23:10:35.126Z,98867.28
2022-09-28T23:13:01.741Z,98860.72
2022-09-28T23:15:29.035Z,98834.47
2022-09-28T23:17:55.732Z,98871.91
2022-09-28T23:20:23.488Z,98881.50
2022-09-28T23:22:50.986Z,98884.50
2022-09-28T23:25:19.625Z,98886.53
2022-09-28T23:27:51.199Z,98879.84
2022-09-28T23:30:20.042Z,98875.50
2022-09-28T23:32:46.677Z,98871.19
2022-09-28T23:35:14.317Z,98852.69
2022-09-28T23:37:40.927Z,98845.06
2022-09-28T23:40:07.996Z,98872.59
2022-09-28T23:42:35.508Z,98842.25
2022-09-28T23:45:02.114Z,98854.25
2022-09-28T23:47:28.694Z,98837.06
2022-09-28T23:49:55.303Z,98862.78
2022-09-28T23:52:21.913Z,98856.22
2022-09-28T23:54:48.604Z,98882.13
2022-09-28T23:57:15.439Z,98885.28
2022-09-28T23:59:41.971Z,98878.84
